Time;durP1;ratioP1;P1;durP2;ratioP2;P2;SDS_P1;SDS_P2;PMS_P1;PMS_P2;Temp;Humidity;BMP_temperature;BMP_pressure;BME280_temperature;BME280_humidity;BME280_pressure;Samples;Min_cycle;Max_cycle;Signal;HPM_P1;HPM_P2
2021/04/17 00:02:13;;;;;;;8.13;7.40;;;;;;;3.77;87.59;98946.75;2144997;83;21166;-82
2021/04/17 00:05:15;;;;;;;10.75;7.60;;;;;;;3.79;87.61;98944.38;2086163;85;21768;-81
2021/04/17 00:08:17;;;;;;;8.80;7.83;;;;;;;3.82;87.56;98945.39;2144977;83;21140;-82
2021/04/17 00:11:20;;;;;;;8.25;7.40;;;;;;;3.84;87.55;98937.05;2145110;83;21756;-82
2021/04/17 00:14:21;;;;;;;8.75;7.45;;;;;;;3.80;87.35;98938.23;2145440;83;21285;-82
2021/04/17 00:17:23;;;;;;;8.60;7.22;;;;;;;3.82;87.48;98936.80;2145052;83;21605;-83
2021/04/17 00:20:25;;;;;;;7.97;7.10;;;;;;;3.85;87.43;98936.09;2145164;82;21309;-82
2021/04/17 00:23:27;;;;;;;8.65;7.78;;;;;;;3.82;87.33;98925.97;2145087;83;21170;-81
2021/04/17 00:26:31;;;;;;;9.15;8.15;;;;;;;3.81;87.54;98939.88;2145424;83;21289;-82
2021/04/17 00:29:32;;;;;;;10.65;8.33;;;;;;;3.84;87.54;98930.56;2145184;83;21344;-81
2021/04/17 00:32:34;;;;;;;10.13;8.35;;;;;;;3.85;87.29;98923.13;2144976;83;21182;-81
2021/04/17 00:35:36;;;;;;;12.98;9.25;;;;;;;3.83;87.40;98921.13;2145096;83;21248;-82
2021/04/17 00:38:38;;;;;;;12.05;8.35;;;;;;;3.89;87.46;98918.50;2145029;83;21183;-82
2021/04/17 00:41:40;;;;;;;12.95;8.30;;;;;;;3.87;87.25;98925.59;2144786;83;21614;-82
2021/04/17 00:44:41;;;;;;;14.18;9.18;;;;;;;3.87;87.47;98925.11;2144983;83;21150;-82
2021/04/17 00:47:43;;;;;;;12.70;9.60;;;;;;;3.90;87.44;98927.91;2145006;83;21155;-82
2021/04/17 00:50:45;;;;;;;13.60;9.65;;;;;;;3.94;87.41;98925.41;2085874;85;21181;-82
2021/04/17 00:53:49;;;;;;;13.75;9.28;;;;;;;3.95;87.37;98925.27;2145226;83;21309;-83
2021/04/17 00:56:51;;;;;;;11.20;8.55;;;;;;;4.00;87.42;98927.45;2144941;83;21185;-82
2021/04/17 00:59:53;;;;;;;13.15;9.95;;;;;;;3.99;87.24;98922.75;2145158;83;21205;-82
2021/04/17 01:02:54;;;;;;;12.98;9.40;;;;;;;4.05;87.36;98925.77;2145298;83;21749;-81
2021/04/17 01:05:56;;;;;;;10.43;8.40;;;;;;;3.98;87.05;98928.89;2144966;83;21638;-81
2021/04/17 01:08:58;;;;;;;10.08;8.55;;;;;;;3.99;87.12;98930.52;2145155;83;21178;-82
2021/04/17 01:12:00;;;;;;;14.10;9.00;;;;;;;4.03;87.26;98932.88;2145260;83;21598;-82
2021/04/17 01:15:02;;;;;;;10.15;8.88;;;;;;;4.03;87.18;98927.21;2145069;83;21170;-82
2021/04/17 01:18:04;;;;;;;9.85;8.85;;;;;;;4.01;87.09;98925.20;2145043;83;21590;-82
2021/04/17 01:21:06;;;;;;;12.03;9.38;;;;;;;4.00;87.20;98930.05;2144916;82;21190;-83
2021/04/17 01:24:09;;;;;;;15.45;9.98;;;;;;;4.02;87.28;98928.13;2086215;85;21320;-82
2021/04/17 01:27:10;;;;;;;12.20;9.00;;;;;;;4.04;87.26;98927.55;2123004;84;21181;-81
2021/04/17 01:30:12;;;;;;;13.30;9.63;;;;;;;4.07;87.32;98924.69;2145116;83;21622;-83
2021/04/17 01:33:14;;;;;;;12.33;9.15;;;;;;;4.14;87.35;98924.98;2145156;83;21174;-84
2021/04/17 01:36:15;;;;;;;14.93;10.65;;;;;;;4.13;87.21;98925.94;2144955;83;21146;-82
2021/04/17 01:39:17;;;;;;;15.38;10.25;;;;;;;4.15;87.24;98926.61;2085842;85;21182;-82
2021/04/17 01:42:19;;;;;;;12.85;9.45;;;;;;;4.14;87.22;98922.38;2145133;83;21162;-82
2021/04/17 01:45:21;;;;;;;14.53;9.73;;;;;;;4.13;87.30;98924.64;2144976;83;21167;-82
2021/04/17 01:48:23;;;;;;;15.98;9.83;;;;;;;4.13;87.41;98916.39;2144958;83;21658;-82
2021/04/17 01:51:25;;;;;;;15.95;9.80;;;;;;;4.17;87.34;98924.70;2145278;83;21749;-82
2021/04/17 01:54:26;;;;;;;14.55;9.73;;;;;;;4.16;87.53;98915.29;2145249;83;21193;-81
2021/04/17 01:57:28;;;;;;;15.23;10.82;;;;;;;4.16;87.41;98913.99;2144953;83;21716;-84
2021/04/17 02:00:29;;;;;;;15.25;10.68;;;;;;;4.15;87.57;98918.84;2086189;85;21317;-83
2021/04/17 02:03:31;;;;;;;18.02;11.20;;;;;;;4.19;87.55;98915.83;2145222;83;21624;-83
2021/04/17 02:06:33;;;;;;;18.37;10.82;;;;;;;4.19;87.49;98918.42;2086146;85;21198;-82
2021/04/17 02:09:34;;;;;;;17.05;11.53;;;;;;;4.22;87.61;98920.77;2145227;83;21324;-81
2021/04/17 02:12:37;;;;;;;16.65;10.55;;;;;;;4.28;87.62;98912.91;2086020;85;21198;-81
2021/04/17 02:15:38;;;;;;;16.05;10.70;;;;;;;4.29;87.48;98908.06;2145326;83;21336;-82
2021/04/17 02:18:40;;;;;;;17.25;11.53;;;;;;;4.25;87.42;98911.89;2086821;83;21146;-83
2021/04/17 02:21:41;;;;;;;19.75;11.05;;;;;;;4.25;87.51;98913.19;2141067;83;21560;-82
2021/04/17 02:24:43;;;;;;;18.60;12.05;;;;;;;4.28;87.50;98916.32;2140796;83;21286;-83
2021/04/17 02:27:46;;;;;;;17.32;10.43;;;;;;;4.26;87.48;98909.64;2141236;83;21166;-83
2021/04/17 02:30:48;;;;;;;11.90;8.83;;;;;;;4.32;87.55;98914.30;2140771;83;21772;-82
2021/04/17 02:33:50;;;;;;;20.60;12.53;;;;;;;4.29;87.24;98914.55;2141194;83;21183;-83
2021/04/17 02:36:52;;;;;;;15.83;10.75;;;;;;;4.23;87.50;98913.80;2141569;83;21202;-83
2021/04/17 02:39:54;;;;;;;22.27;13.38;;;;;;;4.24;87.56;98911.08;2141085;83;21195;-84
2021/04/17 02:42:56;;;;;;;13.10;9.00;;;;;;;4.29;87.72;98908.06;2141225;83;21151;-83
2021/04/17 02:45:58;;;;;;;23.52;13.15;;;;;;;4.35;87.59;98903.64;2141242;83;21162;-82
2021/04/17 02:49:00;;;;;;;22.50;13.05;;;;;;;4.35;87.53;98904.13;2141294;83;21202;-82
2021/04/17 02:52:03;;;;;;;19.73;12.33;;;;;;;4.40;87.61;98911.03;2141294;83;21159;-83
2021/04/17 02:55:06;;;;;;;22.65;13.70;;;;;;;4.49;87.63;98910.22;2140979;83;21313;-82
2021/04/17 02:58:09;;;;;;;18.73;12.00;;;;;;;4.47;87.43;98906.92;2140872;83;21159;-81
2021/04/17 03:01:10;;;;;;;19.57;13.13;;;;;;;4.47;87.42;98905.14;2140879;83;21757;-81
2021/04/17 03:04:12;;;;;;;21.70;13.60;;;;;;;4.50;87.52;98901.00;2141214;83;21158;-79
2021/04/17 03:07:14;;;;;;;23.27;14.10;;;;;;;4.55;87.37;98903.17;2141194;83;21163;-81
2021/04/17 03:10:16;;;;;;;21.35;12.95;;;;;;;4.52;87.34;98908.16;2141177;83;21195;-82
2021/04/17 03:13:17;;;;;;;21.27;13.62;;;;;;;4.58;87.47;98907.29;2141312;83;21141;-81
2021/04/17 03:16:20;;;;;;;26.45;14.85;;;;;;;4.59;87.45;98905.85;2140881;83;21302;-82
2021/04/17 03:19:21;;;;;;;20.95;14.28;;;;;;;4.61;87.42;98903.11;2140838;83;21583;-82
2021/04/17 03:22:24;;;;;;;25.20;14.78;;;;;;;4.65;87.41;98900.58;2140903;83;21265;-83
2021/04/17 03:25:26;;;;;;;18.87;12.55;;;;;;;4.70;87.36;98903.11;2141008;83;21174;-83
2021/04/17 03:28:27;;;;;;;21.60;13.85;;;;;;;4.67;87.03;98904.69;2140874;83;21301;-83
2021/04/17 03:31:29;;;;;;;21.25;13.72;;;;;;;4.66;87.30;98907.39;2140858;83;21151;-83
2021/04/17 03:34:31;;;;;;;25.27;15.93;;;;;;;4.65;87.12;98907.88;2140949;83;21591;-82
2021/04/17 03:37:33;;;;;;;25.52;15.43;;;;;;;4.61;87.12;98913.02;2141122;83;21577;-82
2021/04/17 03:40:35;;;;;;;22.62;14.45;;;;;;;4.60;87.23;98915.75;2140961;83;21631;-81
2021/04/17 03:43:37;;;;;;;23.15;14.28;;;;;;;4.62;87.39;98917.23;2141074;83;21190;-83
2021/04/17 03:46:38;;;;;;;24.15;14.87;;;;;;;4.63;87.26;98920.17;2141064;83;21189;-82
2021/04/17 03:49:40;;;;;;;21.82;15.05;;;;;;;4.62;87.29;98917.23;2141153;83;21151;-82
2021/04/17 03:52:42;;;;;;;21.62;14.65;;;;;;;4.67;87.50;98921.55;2140818;83;21305;-83
2021/04/17 03:55:44;;;;;;;22.22;15.03;;;;;;;4.68;87.35;98920.59;2141158;83;21155;-83
2021/04/17 03:58:45;;;;;;;20.55;14.03;;;;;;;4.70;87.34;98923.86;2140850;83;21305;-83
2021/04/17 04:01:48;;;;;;;21.25;16.52;;;;;;;4.71;87.21;98925.98;2141160;83;21191;-83
2021/04/17 04:04:50;;;;;;;23.98;15.40;;;;;;;4.70;87.35;98928.23;2141038;83;21186;-83
2021/04/17 04:07:53;;;;;;;18.30;13.00;;;;;;;4.72;87.33;98927.61;2140928;83;21309;-83
2021/04/17 04:10:54;;;;;;;19.45;13.48;;;;;;;4.72;87.21;98933.62;2140840;83;21178;-83
2021/04/17 04:13:56;;;;;;;20.92;13.72;;;;;;;4.73;87.37;98935.73;2141515;83;21155;-82
2021/04/17 04:16:58;;;;;;;19.27;13.43;;;;;;;4.75;87.28;98933.81;2141048;83;21626;-83
2021/04/17 04:19:59;;;;;;;16.87;12.30;;;;;;;4.73;87.18;98937.84;2140817;83;21293;-84
2021/04/17 04:23:01;;;;;;;20.72;14.38;;;;;;;4.74;87.34;98943.84;2140903;83;21143;-83
2021/04/17 04:26:03;;;;;;;19.48;13.40;;;;;;;4.78;87.44;98942.64;2140930;83;21733;-82
2021/04/17 04:29:06;;;;;;;17.02;12.65;;;;;;;4.85;87.35;98942.44;2141084;83;21610;-83
2021/04/17 04:32:07;;;;;;;16.73;12.75;;;;;;;4.84;87.18;98940.30;2141126;83;21131;-83
2021/04/17 04:35:09;;;;;;;18.05;12.43;;;;;;;4.85;87.10;98939.84;2141085;83;21116;-82
2021/04/17 04:38:11;;;;;;;19.00;13.13;;;;;;;4.82;87.05;98947.41;2140993;83;21182;-83
2021/04/17 04:41:13;;;;;;;15.50;12.55;;;;;;;4.89;87.36;98946.86;2140764;83;21309;-83
2021/04/17 04:44:15;;;;;;;21.35;14.18;;;;;;;4.92;87.20;98946.58;2140787;83;21313;-82
2021/04/17 04:47:17;;;;;;;28.12;18.92;;;;;;;4.94;87.08;98953.73;2141018;83;21649;-82
2021/04/17 04:50:19;;;;;;;23.10;13.60;;;;;;;4.89;87.10;98948.16;2141096;83;21564;-81
2021/04/17 04:53:21;;;;;;;19.52;12.28;;;;;;;4.98;87.32;98951.23;2140956;83;21178;-82
2021/04/17 04:56:23;;;;;;;16.73;11.48;;;;;;;5.01;87.17;98958.73;2140997;83;21178;-82
2021/04/17 04:59:24;;;;;;;13.80;9.68;;;;;;;5.04;87.08;98951.98;2141031;83;21229;-81
2021/04/17 05:02:26;;;;;;;20.97;12.55;;;;;;;5.03;86.95;98951.16;2141319;83;21190;-81
2021/04/17 05:05:28;;;;;;;21.07;12.63;;;;;;;5.01;87.00;98958.73;2140945;83;21178;-83
2021/04/17 05:08:30;;;;;;;22.82;12.00;;;;;;;5.02;86.95;98962.95;2140854;83;21167;-84
2021/04/17 05:11:32;;;;;;;19.70;11.63;;;;;;;5.03;87.12;98965.89;2141070;83;21146;-83
2021/04/17 05:14:33;;;;;;;15.80;11.18;;;;;;;5.09;87.29;98958.38;2140949;83;21159;-83
2021/04/17 05:17:35;;;;;;;18.50;11.95;;;;;;;5.18;87.26;98965.00;2140931;83;21151;-82
2021/04/17 05:20:37;;;;;;;18.92;13.48;;;;;;;5.20;87.12;98965.67;2142317;83;21135;-83
2021/04/17 05:23:40;;;;;;;18.07;13.83;;;;;;;5.23;86.99;98961.03;2144927;83;21166;-82
2021/04/17 05:26:42;;;;;;;17.57;13.18;;;;;;;5.27;86.87;98958.48;2145124;83;21166;-82
2021/04/17 05:29:44;;;;;;;18.60;12.23;;;;;;;5.32;86.83;98964.09;2144964;83;21154;-82
2021/04/17 05:32:45;;;;;;;16.75;12.03;;;;;;;5.33;86.62;98967.51;2144949;83;21155;-82
2021/04/17 05:35:47;;;;;;;17.55;12.03;;;;;;;5.34;86.81;98963.95;2145580;83;21301;-82
2021/04/17 05:38:50;;;;;;;17.30;12.80;;;;;;;5.41;86.91;98967.62;2145153;83;21163;-81
2021/04/17 05:41:52;;;;;;;17.70;11.65;;;;;;;5.51;86.90;98965.00;2145218;83;21336;-81
2021/04/17 05:44:54;;;;;;;18.35;12.18;;;;;;;5.58;86.60;98972.09;2145443;83;21297;-81
2021/04/17 05:47:56;;;;;;;17.85;11.90;;;;;;;5.66;86.68;98964.39;2145150;83;21112;-81
2021/04/17 05:50:58;;;;;;;17.10;11.22;;;;;;;5.75;86.37;98966.61;2145110;83;21183;-80
2021/04/17 05:54:00;;;;;;;16.10;11.00;;;;;;;5.79;86.24;98971.87;2145142;83;21120;-80
2021/04/17 05:57:03;;;;;;;18.15;12.68;;;;;;;5.83;86.00;98971.92;2145086;83;21175;-82
2021/04/17 06:00:06;;;;;;;18.02;12.23;;;;;;;5.83;86.08;98965.91;2145299;83;21198;-84
2021/04/17 06:03:08;;;;;;;22.10;13.65;;;;;;;5.88;86.00;98964.52;2145592;83;21151;-83
2021/04/17 06:06:09;;;;;;;29.65;16.70;;;;;;;5.88;85.99;98963.70;2145685;83;21300;-84
2021/04/17 06:09:12;;;;;;;23.98;15.60;;;;;;;5.91;85.94;98963.44;2145499;83;21127;-85
2021/04/17 06:12:15;;;;;;;23.67;15.00;;;;;;;5.98;85.98;98968.41;2145634;83;21163;-84
2021/04/17 06:15:21;;;;;;;19.57;13.65;;;;;;;6.04;85.84;98961.83;2145283;83;21166;-86
2021/04/17 06:18:23;;;;;;;18.30;11.88;;;;;;;6.05;85.58;98966.88;2145195;83;21210;-84
2021/04/17 06:21:24;;;;;;;20.75;13.03;;;;;;;6.12;85.56;98964.02;2145152;83;21348;-83
2021/04/17 06:24:26;;;;;;;19.32;13.22;;;;;;;6.09;85.39;98963.02;2145122;83;21590;-84
2021/04/17 06:27:28;;;;;;;17.90;12.37;;;;;;;6.15;85.47;98953.34;2145352;83;21305;-84
2021/04/17 06:30:30;;;;;;;18.37;12.93;;;;;;;6.19;85.01;98955.98;2145318;83;21176;-90
2021/04/17 06:33:32;;;;;;;20.17;12.58;;;;;;;6.23;85.08;98951.32;2145325;83;21705;-84
2021/04/17 06:36:33;;;;;;;20.30;12.90;;;;;;;6.27;85.16;98952.65;2145027;83;21143;-84
2021/04/17 06:39:35;;;;;;;22.35;15.10;;;;;;;6.36;85.10;98958.27;2144242;83;21161;-87
2021/04/17 06:42:37;;;;;;;20.48;13.10;;;;;;;6.37;84.82;98961.20;2116259;82;21307;-87
2021/04/17 06:45:40;;;;;;;18.80;13.30;;;;;;;6.36;84.48;98959.58;2149946;83;21153;-85
2021/04/17 06:48:42;;;;;;;21.42;14.65;;;;;;;6.25;84.23;98961.91;2151901;82;21158;-86
2021/04/17 06:51:43;;;;;;;20.55;14.65;;;;;;;6.17;84.46;98965.70;2152005;83;21176;-86
2021/04/17 06:54:45;;;;;;;22.17;15.28;;;;;;;6.15;84.63;98965.05;2151809;82;21294;-88
2021/04/17 06:57:47;;;;;;;23.70;14.58;;;;;;;6.12;84.60;98964.50;2152118;82;21164;-88
2021/04/17 07:00:49;;;;;;;23.62;14.58;;;;;;;6.11;84.46;98961.08;2151830;82;21620;-94
2021/04/17 07:03:51;;;;;;;20.35;13.95;;;;;;;6.15;84.41;98960.33;2154443;82;21156;-90
2021/04/17 07:06:52;;;;;;;19.25;12.75;;;;;;;6.15;84.37;98967.64;2154356;82;21320;-82
2021/04/17 07:09:54;;;;;;;21.30;14.13;;;;;;;6.20;84.59;98968.49;2152861;83;21291;-91
2021/04/17 07:12:56;;;;;;;19.27;14.10;;;;;;;6.18;84.50;98971.73;2151997;82;21165;-86
2021/04/17 07:15:58;;;;;;;26.80;16.73;;;;;;;6.12;84.50;98982.21;2152056;82;21200;-84
2021/04/17 07:19:00;;;;;;;23.22;14.68;;;;;;;6.13;84.75;98973.96;2152101;82;21173;-86
2021/04/17 07:22:01;;;;;;;25.55;16.62;;;;;;;6.15;84.72;98975.45;2149401;82;21162;-82
2021/04/17 07:25:03;;;;;;;29.02;15.55;;;;;;;6.18;84.55;98980.34;2148149;82;21176;-84
2021/04/17 07:28:05;;;;;;;25.77;17.15;;;;;;;6.16;84.39;98977.56;2148266;83;21636;-83
2021/04/17 07:31:07;;;;;;;24.80;15.95;;;;;;;6.18;84.80;98976.92;2168251;82;21180;-84
2021/04/17 07:34:09;;;;;;;21.60;14.23;;;;;;;6.22;84.65;98982.19;2168433;81;21166;-84
2021/04/17 07:37:11;;;;;;;22.17;13.98;;;;;;;6.25;84.63;98984.49;2168129;82;21166;-84
2021/04/17 07:40:14;;;;;;;24.55;15.30;;;;;;;6.24;84.29;98990.17;2168471;82;21160;-84
2021/04/17 07:43:17;;;;;;;26.52;16.75;;;;;;;6.28;84.57;98982.41;2145273;83;21193;-83
2021/04/17 07:46:19;;;;;;;26.05;16.57;;;;;;;6.30;83.98;98985.34;2145297;83;21165;-82
2021/04/17 07:49:22;;;;;;;29.27;17.50;;;;;;;6.24;84.08;98980.26;2168460;82;21175;-83
2021/04/17 07:52:23;;;;;;;29.30;16.85;;;;;;;6.32;84.30;98977.75;2168241;82;21566;-82
2021/04/17 07:55:26;;;;;;;24.32;15.63;;;;;;;6.39;84.34;98983.98;2168418;82;21145;-84
2021/04/17 07:58:27;;;;;;;31.48;19.45;;;;;;;6.40;83.74;98984.80;2168388;82;21163;-84
2021/04/17 08:01:29;;;;;;;28.42;17.82;;;;;;;6.46;83.83;98986.34;2145224;83;21611;-84
2021/04/17 08:04:31;;;;;;;32.73;20.17;;;;;;;6.51;84.07;98980.23;2145243;83;21200;-83
2021/04/17 08:07:33;;;;;;;30.12;18.37;;;;;;;6.64;83.88;98980.34;2168392;82;21171;-84
2021/04/17 08:10:35;;;;;;;34.55;19.80;;;;;;;6.73;83.58;98988.56;2168065;82;21145;-83
2021/04/17 08:13:37;;;;;;;27.70;18.48;;;;;;;6.81;83.42;98983.44;2168105;82;21168;-83
2021/04/17 08:16:39;;;;;;;24.63;15.93;;;;;;;6.87;83.39;98988.05;2167795;82;21116;-85
2021/04/17 08:19:41;;;;;;;24.23;15.50;;;;;;;6.89;82.85;98991.32;2167849;82;21185;-85
2021/04/17 08:22:43;;;;;;;22.07;15.68;;;;;;;6.92;83.27;98987.59;2165641;81;21334;-83
2021/04/17 08:25:45;;;;;;;20.82;14.03;;;;;;;6.97;83.03;98994.00;2142509;83;21826;-84
2021/04/17 08:28:47;;;;;;;22.77;13.83;;;;;;;6.85;82.55;98989.97;2142694;83;21180;-83
2021/04/17 08:31:50;;;;;;;25.02;15.25;;;;;;;6.76;82.54;98994.76;2142538;83;21311;-83
2021/04/17 08:34:51;;;;;;;25.40;15.60;;;;;;;6.79;83.14;98999.69;2142528;83;21585;-83
2021/04/17 08:37:54;;;;;;;21.93;14.80;;;;;;;6.78;82.63;98996.27;2142746;83;21180;-83
2021/04/17 08:40:55;;;;;;;20.23;13.10;;;;;;;6.82;82.86;98996.30;2142420;83;21684;-83
2021/04/17 08:43:57;;;;;;;21.85;15.60;;;;;;;6.85;83.12;99002.50;2142378;83;21831;-83
2021/04/17 08:46:59;;;;;;;21.77;15.80;;;;;;;6.84;82.95;98992.23;2142492;83;21600;-84
2021/04/17 08:50:01;;;;;;;23.27;14.58;;;;;;;6.84;82.92;99000.05;2142645;83;21267;-84
2021/04/17 08:53:03;;;;;;;21.82;14.15;;;;;;;6.87;82.90;98994.56;2142509;83;21570;-84
2021/04/17 08:56:05;;;;;;;17.92;13.08;;;;;;;6.90;82.38;98998.64;2142549;83;21303;-84
2021/04/17 08:59:07;;;;;;;29.32;18.37;;;;;;;6.83;82.61;98997.93;2142748;83;21190;-84
2021/04/17 09:02:09;;;;;;;28.25;17.50;;;;;;;6.81;82.75;99005.08;2142882;83;21184;-84
2021/04/17 09:05:12;;;;;;;23.80;16.67;;;;;;;6.82;83.23;99005.89;2142536;83;21185;-83
2021/04/17 09:08:14;;;;;;;30.35;20.12;;;;;;;6.82;83.11;99001.50;2142589;83;21583;-83
2021/04/17 09:11:15;;;;;;;22.58;15.00;;;;;;;6.82;82.94;99000.69;2142670;83;21283;-84
2021/04/17 09:14:17;;;;;;;46.63;26.68;;;;;;;6.88;82.91;98994.89;2142512;83;21316;-83
2021/04/17 09:17:19;;;;;;;20.43;13.53;;;;;;;7.00;82.66;98998.08;2142529;83;21181;-83
2021/04/17 09:20:21;;;;;;;76.25;37.03;;;;;;;7.08;82.68;98992.95;2142589;83;21315;-83
2021/04/17 09:23:23;;;;;;;28.90;16.82;;;;;;;7.15;82.95;98997.89;2145094;82;21193;-83
2021/04/17 09:26:25;;;;;;;25.68;14.73;;;;;;;7.20;82.64;98999.55;2145137;83;21152;-84
2021/04/17 09:29:27;;;;;;;16.60;13.32;;;;;;;7.30;82.85;99002.87;2145373;83;21295;-85
2021/04/17 09:32:29;;;;;;;14.00;10.50;;;;;;;7.45;82.64;99006.25;2145088;83;21169;-84
2021/04/17 09:35:31;;;;;;;18.45;12.95;;;;;;;7.45;82.39;99008.37;2145174;83;21126;-84
2021/04/17 09:38:34;;;;;;;40.30;21.40;;;;;;;7.43;82.32;99005.10;2145140;83;21172;-87
2021/04/17 09:41:36;;;;;;;18.55;12.70;;;;;;;7.39;82.65;99014.98;2145201;83;21144;-83
2021/04/17 09:44:38;;;;;;;15.88;11.20;;;;;;;7.38;82.53;99012.54;2145119;83;21145;-85
2021/04/17 09:47:40;;;;;;;14.60;11.15;;;;;;;7.46;82.54;99014.39;2168321;82;21591;-84
2021/04/17 09:50:43;;;;;;;16.97;12.03;;;;;;;7.45;82.68;99016.19;2168518;82;21185;-83
2021/04/17 09:53:44;;;;;;;37.33;22.07;;;;;;;7.51;82.72;99010.86;2168580;82;21180;-83
2021/04/17 09:56:47;;;;;;;17.10;13.05;;;;;;;7.51;82.44;99012.16;2145522;83;21319;-85
2021/04/17 09:59:49;;;;;;;18.92;14.93;;;;;;;7.45;82.31;99008.85;2145469;83;21283;-82
2021/04/17 10:02:52;;;;;;;14.28;11.93;;;;;;;7.41;82.51;99012.26;2145136;83;21137;-84
2021/04/17 10:05:53;;;;;;;17.55;13.72;;;;;;;7.43;82.26;99006.41;2145162;83;21180;-84
2021/04/17 10:08:55;;;;;;;17.45;13.08;;;;;;;7.43;82.49;99010.31;2145219;83;21172;-83
2021/04/17 10:11:57;;;;;;;17.40;13.95;;;;;;;7.41;82.63;99006.56;2145455;83;21312;-85
2021/04/17 10:14:59;;;;;;;29.75;20.25;;;;;;;7.46;82.50;99006.58;2145451;83;21323;-83
2021/04/17 10:18:00;;;;;;;24.00;17.40;;;;;;;7.49;82.23;99012.29;2145173;83;21204;-83
2021/04/17 10:21:02;;;;;;;14.75;11.80;;;;;;;7.50;82.27;99006.59;2145216;83;21319;-84
2021/04/17 10:24:04;;;;;;;16.30;12.43;;;;;;;7.49;82.08;99012.29;2143440;83;21134;-84
2021/04/17 10:27:07;;;;;;;19.25;13.30;;;;;;;7.46;82.04;99010.00;2142753;83;21792;-83
2021/04/17 10:30:08;;;;;;;15.08;11.53;;;;;;;7.48;82.25;99009.36;2142841;83;21189;-83
2021/04/17 10:33:10;;;;;;;18.05;13.25;;;;;;;7.43;82.15;99009.50;2142687;83;21327;-83
2021/04/17 10:36:12;;;;;;;15.53;11.60;;;;;;;7.45;82.33;99016.19;2142861;83;21136;-84
2021/04/17 10:39:14;;;;;;;20.02;13.68;;;;;;;7.47;82.25;99014.72;2142823;83;21161;-83
2021/04/17 10:42:16;;;;;;;20.57;15.35;;;;;;;7.48;82.15;99018.47;2142693;83;21277;-84
2021/04/17 10:45:17;;;;;;;16.73;12.78;;;;;;;7.46;82.16;99020.42;2142208;83;21728;-83
2021/04/17 10:48:20;;;;;;;13.18;10.65;;;;;;;7.50;82.35;99017.86;2142572;83;21570;-83
2021/04/17 10:51:22;;;;;;;17.82;13.53;;;;;;;7.47;82.21;99020.75;2142395;83;21307;-84
2021/04/17 10:54:24;;;;;;;16.00;12.53;;;;;;;7.50;82.43;99023.07;2142477;83;21340;-83
2021/04/17 10:57:26;;;;;;;17.05;13.10;;;;;;;7.56;82.34;99025.53;2143128;83;21176;-84
2021/04/17 11:00:28;;;;;;;16.67;12.60;;;;;;;7.52;82.30;99028.94;2142563;83;21743;-83
2021/04/17 11:03:30;;;;;;;16.45;12.68;;;;;;;7.54;82.34;99028.30;2142705;83;21332;-84
2021/04/17 11:06:32;;;;;;;15.63;12.68;;;;;;;7.54;82.41;99024.39;2142491;83;21152;-84
2021/04/17 11:09:34;;;;;;;21.70;14.30;;;;;;;7.55;82.49;99028.62;2142489;83;21178;-84
2021/04/17 11:12:35;;;;;;;16.97;12.45;;;;;;;7.58;82.47;99028.80;2142760;83;21287;-83
2021/04/17 11:15:38;;;;;;;16.02;12.30;;;;;;;7.56;82.38;99030.26;2142547;83;21753;-85
2021/04/17 11:18:39;;;;;;;14.73;11.28;;;;;;;7.60;82.52;99031.61;2142790;83;21172;-87
2021/04/17 11:21:41;;;;;;;15.80;13.22;;;;;;;7.67;82.31;99026.58;2170839;81;21296;-82
2021/04/17 11:24:43;;;;;;;15.58;12.20;;;;;;;7.69;82.17;99025.97;2142824;83;21170;-87
2021/04/17 11:27:45;;;;;;;20.23;13.95;;;;;;;7.63;82.31;99032.59;2143273;83;21291;-84
2021/04/17 11:30:47;;;;;;;25.15;16.97;;;;;;;7.63;82.38;99030.48;2143948;83;21387;-87
2021/04/17 11:33:49;;;;;;;17.40;14.15;;;;;;;7.65;82.45;99037.16;2144450;83;21333;-85
2021/04/17 11:36:51;;;;;;;15.93;12.28;;;;;;;7.66;82.33;99034.06;2143303;83;21324;-83
2021/04/17 11:39:52;;;;;;;17.73;13.55;;;;;;;7.68;82.26;99036.88;2143579;83;21201;-82
2021/04/17 11:42:54;;;;;;;51.88;30.80;;;;;;;7.69;82.43;99046.81;2143226;83;21735;-89
2021/04/17 11:45:56;;;;;;;30.00;18.80;;;;;;;7.73;82.51;99040.80;2142622;83;21335;-86
2021/04/17 11:48:58;;;;;;;20.77;14.98;;;;;;;7.77;82.36;99036.91;2142536;83;21279;-86
2021/04/17 11:52:00;;;;;;;15.68;13.08;;;;;;;7.75;82.07;99042.76;2142869;83;21153;-86
2021/04/17 11:55:01;;;;;;;20.00;15.63;;;;;;;7.77;81.98;99043.42;2142816;83;21726;-91
2021/04/17 11:58:03;;;;;;;23.57;15.63;;;;;;;7.78;82.23;99041.98;2142548;83;21287;-87
2021/04/17 12:01:05;;;;;;;17.67;12.60;;;;;;;7.84;82.21;99042.66;2142745;83;21619;-84
2021/04/17 12:04:07;;;;;;;13.90;10.75;;;;;;;7.88;81.90;99041.39;2142178;83;21243;-84
2021/04/17 12:07:08;;;;;;;12.58;10.60;;;;;;;7.87;81.73;99039.77;2142698;83;21767;-85
2021/04/17 12:10:10;;;;;;;15.85;11.05;;;;;;;7.87;81.72;99038.95;2142473;83;21839;-86
2021/04/17 12:13:12;;;;;;;17.75;11.60;;;;;;;7.74;81.58;99039.34;2142681;83;21176;-84
2021/04/17 12:16:15;;;;;;;12.10;9.65;;;;;;;7.74;82.08;99043.73;2142389;83;21315;-84
2021/04/17 12:19:16;;;;;;;11.10;9.93;;;;;;;7.73;81.66;99041.61;2165722;82;21208;-83
2021/04/17 12:22:18;;;;;;;13.78;10.82;;;;;;;7.72;81.94;99047.80;2163646;81;21740;-84
2021/04/17 12:25:20;;;;;;;14.78;10.78;;;;;;;7.80;82.24;99044.44;2143308;83;21537;-84
2021/04/17 12:28:22;;;;;;;15.68;13.40;;;;;;;7.85;81.80;99048.69;2160220;82;21284;-84
2021/04/17 12:31:24;;;;;;;14.07;11.15;;;;;;;7.85;81.73;99043.47;2160209;82;21280;-84
2021/04/17 12:34:25;;;;;;;13.20;10.30;;;;;;;7.91;81.84;99044.17;2160166;82;21182;-84
2021/04/17 12:37:27;;;;;;;11.00;9.25;;;;;;;7.95;81.69;99048.09;2159856;82;21296;-84
2021/04/17 12:40:29;;;;;;;10.48;9.35;;;;;;;7.93;81.40;99048.25;2143365;83;21742;-83
2021/04/17 12:43:30;;;;;;;13.28;10.85;;;;;;;7.91;81.53;99046.29;2160224;82;21169;-83
2021/04/17 12:46:32;;;;;;;13.58;10.78;;;;;;;7.91;81.27;99045.47;2143268;83;21173;-82
2021/04/17 12:49:34;;;;;;;15.18;12.37;;;;;;;7.82;80.91;99042.48;2160123;82;21688;-83
2021/04/17 12:52:36;;;;;;;17.32;14.03;;;;;;;7.73;80.87;99043.41;2160154;82;21149;-84
2021/04/17 12:55:38;;;;;;;15.58;11.68;;;;;;;7.60;81.25;99039.91;2160222;82;21312;-82
2021/04/17 12:58:40;;;;;;;14.75;10.85;;;;;;;7.60;81.35;99051.64;2160004;82;21184;-83
2021/04/17 13:01:42;;;;;;;13.93;10.85;;;;;;;7.58;81.63;99047.04;2159806;82;21181;-85
2021/04/17 13:04:44;;;;;;;15.38;11.78;;;;;;;7.64;81.75;99040.73;2159820;82;21160;-84
2021/04/17 13:07:46;;;;;;;17.62;11.65;;;;;;;7.72;81.68;99042.59;2159766;82;21330;-84
2021/04/17 13:10:48;;;;;;;13.48;11.18;;;;;;;7.79;81.63;99049.32;2159887;82;21279;-81
2021/04/17 13:13:50;;;;;;;12.18;9.98;;;;;;;7.83;81.49;99044.94;2160377;82;21701;-81
2021/04/17 13:16:52;;;;;;;12.10;9.45;;;;;;;7.91;81.49;99046.29;2143129;83;21141;-83
2021/04/17 13:19:53;;;;;;;12.35;9.58;;;;;;;7.96;81.21;99045.84;2160204;82;21598;-83
2021/04/17 13:22:55;;;;;;;9.45;8.43;;;;;;;7.96;81.00;99045.84;2160072;81;21312;-82
2021/04/17 13:25:57;;;;;;;10.88;9.18;;;;;;;7.91;80.60;99046.77;2159870;82;21155;-83
2021/04/17 13:28:59;;;;;;;15.00;10.32;;;;;;;7.77;80.75;99041.63;2160177;82;21293;-83
2021/04/17 13:32:02;;;;;;;16.27;10.40;;;;;;;7.75;81.27;99049.27;2159913;82;21293;-83
2021/04/17 13:35:11;;;;;;;12.45;10.45;;;;;;;7.73;81.35;99045.52;2177330;82;21613;-86
2021/04/17 13:38:13;;;;;;;;;;;;;;;7.79;81.41;99046.72;2158817;83;21302;-83
2021/04/17 13:41:15;;;;;;;11.08;8.93;;;;;;;7.82;81.55;99045.09;2156237;83;20237;-83
2021/04/17 13:44:17;;;;;;;12.05;9.05;;;;;;;7.85;81.49;99054.72;2156087;82;21170;-81
2021/04/17 13:47:19;;;;;;;26.57;17.62;;;;;;;7.89;80.97;99051.34;2156059;82;21184;-84
2021/04/17 13:50:21;;;;;;;17.52;12.35;;;;;;;7.84;81.22;99059.60;2155956;82;21196;-82
2021/04/17 13:53:23;;;;;;;21.90;13.90;;;;;;;7.82;81.47;99065.95;2156289;83;21315;-83
2021/04/17 13:56:25;;;;;;;22.80;14.47;;;;;;;7.78;80.98;99068.05;2156011;82;21180;-82
2021/04/17 13:59:28;;;;;;;26.07;16.25;;;;;;;7.63;81.11;99068.27;2156291;82;21363;-82
2021/04/17 14:02:30;;;;;;;25.35;18.20;;;;;;;7.58;81.31;99063.48;2156094;82;21141;-83
2021/04/17 14:05:33;;;;;;;33.48;20.60;;;;;;;7.49;81.53;99064.41;2156490;83;21688;-83
2021/04/17 14:08:36;;;;;;;36.45;22.70;;;;;;;7.46;81.61;99067.31;2155864;82;21342;-82